Time;durP1;ratioP1;P1;durP2;ratioP2;P2;SDS_P1;SDS_P2;PMS_P1;PMS_P2;Temp;Humidity;BMP_temperature;BMP_pressure;BME280_temperature;BME280_humidity;BME280_pressure;Samples;Min_cycle;Max_cycle;Signal;HPM_P1;HPM_P2
2022/02/23 00:00:10;;;;;;;11.63;5.47;;;;;;;;;;1751931;82;21024;-68
2022/02/23 00:02:36;;;;;;;10.05;4.65;;;;;;;;;;1753561;81;20980;-67
2022/02/23 00:05:02;;;;;;;7.47;4.35;;;;;;;;;;1752934;82;21078;-67
2022/02/23 00:07:28;;;;;;;8.33;4.20;;;;;;;;;;1749641;82;21024;-67
2022/02/23 00:09:54;;;;;;;8.35;4.03;;;;;;;;;;1753166;82;20997;-67
2022/02/23 00:12:20;;;;;;;7.28;3.72;;;;;;;;;;1752927;81;20984;-67
2022/02/23 00:14:48;;;;;;;5.55;3.62;;;;;;;;;;1748731;82;21051;-67
2022/02/23 00:17:14;;;;;;;11.10;4.70;;;;;;;;;;1752985;82;21000;-68
2022/02/23 00:19:40;;;;;;;11.78;4.80;;;;;;;;;;1753003;82;20988;-67
2022/02/23 00:22:05;;;;;;;10.30;4.25;;;;;;;;;;1753333;81;20953;-68
2022/02/23 00:24:32;;;;;;;11.20;4.22;;;;;;;;;;1753042;82;20991;-68
2022/02/23 00:26:58;;;;;;;6.08;3.58;;;;;;;;;;1753381;81;20948;-68
2022/02/23 00:29:24;;;;;;;8.08;4.15;;;;;;;;;;1752238;82;21072;-68
2022/02/23 00:31:50;;;;;;;5.80;3.85;;;;;;;;;;1754846;81;21008;-68
2022/02/23 00:34:15;;;;;;;8.75;3.35;;;;;;;;;;1753145;82;20972;-68
2022/02/23 00:36:41;;;;;;;5.58;2.98;;;;;;;;;;1753249;82;21032;-68
2022/02/23 00:39:07;;;;;;;6.28;3.02;;;;;;;;;;1749366;81;21496;-68
2022/02/23 00:41:34;;;;;;;6.53;3.58;;;;;;;;;;1758729;81;21495;-68
2022/02/23 00:43:59;;;;;;;6.95;3.62;;;;;;;;;;1758381;81;20995;-68
2022/02/23 00:46:25;;;;;;;5.95;3.50;;;;;;;;;;1753079;81;21057;-69
2022/02/23 00:48:53;;;;;;;6.15;3.50;;;;;;;;;;1755387;81;20954;-68
2022/02/23 00:51:20;;;;;;;6.55;3.72;;;;;;;;;;1756895;81;20991;-68
2022/02/23 00:53:45;;;;;;;8.03;4.45;;;;;;;;;;1758346;80;20956;-68
2022/02/23 00:56:11;;;;;;;9.63;3.77;;;;;;;;;;1757426;81;20968;-67
2022/02/23 00:58:37;;;;;;;6.72;3.90;;;;;;;;;;1756776;81;21042;-68
2022/02/23 01:01:03;;;;;;;7.53;4.03;;;;;;;;;;1758580;81;21040;-68
2022/02/23 01:03:30;;;;;;;7.60;3.72;;;;;;;;;;1760203;81;20976;-68
2022/02/23 01:05:56;;;;;;;8.95;3.72;;;;;;;;;;1756900;81;20955;-68
2022/02/23 01:08:22;;;;;;;9.20;4.40;;;;;;;;;;1756133;81;21000;-68
2022/02/23 01:10:48;;;;;;;12.43;4.55;;;;;;;;;;1754544;81;22003;-68
2022/02/23 01:13:14;;;;;;;9.90;3.83;;;;;;;;;;1757986;81;21073;-68
2022/02/23 01:15:40;;;;;;;9.35;3.98;;;;;;;;;;1758567;81;21788;-68
2022/02/23 01:18:06;;;;;;;10.38;4.87;;;;;;;;;;1758093;81;21531;-68
2022/02/23 01:20:32;;;;;;;8.40;4.42;;;;;;;;;;1758234;81;21507;-68
2022/02/23 01:22:59;;;;;;;7.90;4.08;;;;;;;;;;1757551;81;21088;-68
2022/02/23 01:25:26;;;;;;;6.85;4.12;;;;;;;;;;1759112;81;21024;-68
2022/02/23 01:27:52;;;;;;;7.12;4.15;;;;;;;;;;1758594;81;21452;-68
2022/02/23 01:30:18;;;;;;;8.68;4.50;;;;;;;;;;1758583;81;21055;-68
2022/02/23 01:32:44;;;;;;;9.18;4.10;;;;;;;;;;1757849;81;21019;-68
2022/02/23 01:35:11;;;;;;;6.37;4.00;;;;;;;;;;1758442;81;21055;-68
2022/02/23 01:37:37;;;;;;;8.10;3.45;;;;;;;;;;1758082;81;21043;-68
2022/02/23 01:40:03;;;;;;;8.25;3.80;;;;;;;;;;1762147;81;21095;-68
2022/02/23 01:42:30;;;;;;;7.85;4.37;;;;;;;;;;1748922;82;21024;-69
2022/02/23 01:44:56;;;;;;;10.28;4.78;;;;;;;;;;1753254;82;21238;-69
2022/02/23 01:47:22;;;;;;;10.32;4.17;;;;;;;;;;1752944;81;21538;-68
2022/02/23 01:49:50;;;;;;;8.70;4.22;;;;;;;;;;1753643;81;21039;-69
2022/02/23 01:52:16;;;;;;;6.80;3.87;;;;;;;;;;1752240;82;21429;-69
2022/02/23 01:54:42;;;;;;;6.92;3.70;;;;;;;;;;1747863;80;21008;-68
2022/02/23 01:57:08;;;;;;;5.80;3.30;;;;;;;;;;1752776;81;20972;-68
2022/02/23 01:59:33;;;;;;;8.18;3.83;;;;;;;;;;1754904;81;21544;-68
2022/02/23 02:08:05;;;;;;;7.40;3.50;;;;;;;;;;1694219;85;21049;-69
2022/02/23 02:10:31;;;;;;;7.10;3.52;;;;;;;;;;1729240;83;21611;-67
2022/02/23 02:12:57;;;;;;;6.87;3.77;;;;;;;;;;1694514;85;21363;-67
2022/02/23 02:15:23;;;;;;;6.50;3.67;;;;;;;;;;1729095;83;21054;-68
2022/02/23 02:17:49;;;;;;;10.75;4.42;;;;;;;;;;1693975;84;20994;-68
2022/02/23 02:20:15;;;;;;;4.65;3.02;;;;;;;;;;1728838;83;21117;-68
2022/02/23 02:22:41;;;;;;;5.90;3.27;;;;;;;;;;1728927;83;21797;-68
2022/02/23 02:25:08;;;;;;;6.17;3.40;;;;;;;;;;1693911;84;21041;-68
2022/02/23 02:27:34;;;;;;;6.53;3.35;;;;;;;;;;1729156;83;21010;-68
2022/02/23 02:30:00;;;;;;;7.15;3.35;;;;;;;;;;1694125;84;21567;-68
2022/02/23 02:32:27;;;;;;;6.08;3.87;;;;;;;;;;1694145;84;21135;-68
2022/02/23 02:34:53;;;;;;;7.50;3.40;;;;;;;;;;1729030;83;20967;-69
2022/02/23 02:37:19;;;;;;;6.53;3.62;;;;;;;;;;1694322;84;21021;-67
2022/02/23 02:39:45;;;;;;;6.55;3.70;;;;;;;;;;1728956;83;21131;-68
2022/02/23 02:42:11;;;;;;;5.00;3.70;;;;;;;;;;1694156;84;21209;-68
2022/02/23 02:44:37;;;;;;;5.60;3.85;;;;;;;;;;1694224;85;20981;-68
2022/02/23 02:47:04;;;;;;;6.53;3.60;;;;;;;;;;1729067;83;20979;-67
2022/02/23 02:49:30;;;;;;;5.67;3.55;;;;;;;;;;1728966;83;21074;-67
2022/02/23 02:51:56;;;;;;;6.70;4.00;;;;;;;;;;1694394;85;21045;-67
2022/02/23 02:54:22;;;;;;;6.90;3.80;;;;;;;;;;1694222;85;21041;-68
2022/02/23 02:56:48;;;;;;;6.97;3.70;;;;;;;;;;1694485;85;21636;-68
2022/02/23 02:59:14;;;;;;;7.45;3.70;;;;;;;;;;1728898;83;21054;-68
2022/02/23 03:01:40;;;;;;;8.10;3.83;;;;;;;;;;1729257;83;21524;-68
2022/02/23 03:04:06;;;;;;;8.83;4.20;;;;;;;;;;1702084;83;21048;-69
2022/02/23 03:06:33;;;;;;;9.25;4.47;;;;;;;;;;1689259;84;21492;-68
2022/02/23 03:08:59;;;;;;;5.97;4.10;;;;;;;;;;1737305;82;21032;-70
2022/02/23 03:11:25;;;;;;;4.30;3.22;;;;;;;;;;1737333;82;21032;-69
2022/02/23 03:13:51;;;;;;;8.33;4.62;;;;;;;;;;1739117;82;20997;-68
2022/02/23 03:16:17;;;;;;;7.55;3.95;;;;;;;;;;1731154;82;20997;-69
2022/02/23 03:18:44;;;;;;;9.35;3.87;;;;;;;;;;1732110;82;21008;-69
2022/02/23 03:21:10;;;;;;;8.08;3.62;;;;;;;;;;1738642;82;21535;-68
2022/02/23 03:23:36;;;;;;;6.45;3.83;;;;;;;;;;1737964;82;21092;-69
2022/02/23 03:26:02;;;;;;;5.85;3.83;;;;;;;;;;1691701;84;21009;-68
2022/02/23 03:28:29;;;;;;;4.62;3.22;;;;;;;;;;1687969;84;21061;-68
2022/02/23 03:30:55;;;;;;;6.47;2.95;;;;;;;;;;1718308;83;20969;-69
2022/02/23 03:33:21;;;;;;;5.10;2.72;;;;;;;;;;1729682;82;21570;-69
2022/02/23 03:35:47;;;;;;;6.05;3.52;;;;;;;;;;1740363;82;21479;-69
2022/02/23 03:38:13;;;;;;;7.10;3.17;;;;;;;;;;1738505;82;21037;-69
2022/02/23 03:40:40;;;;;;;4.05;2.70;;;;;;;;;;1689301;84;21639;-69
2022/02/23 03:43:06;;;;;;;4.85;2.90;;;;;;;;;;1687584;84;21052;-68
2022/02/23 03:45:32;;;;;;;6.22;2.62;;;;;;;;;;1719075;83;21084;-67
2022/02/23 03:47:58;;;;;;;5.87;3.00;;;;;;;;;;1719536;83;21035;-67
2022/02/23 03:50:25;;;;;;;3.85;2.50;;;;;;;;;;1732275;82;20993;-67
2022/02/23 03:52:51;;;;;;;6.50;3.25;;;;;;;;;;1738937;82;21520;-67
2022/02/23 03:55:16;;;;;;;7.55;3.52;;;;;;;;;;1736560;82;20996;-68
2022/02/23 03:57:42;;;;;;;5.20;3.10;;;;;;;;;;1755458;81;21004;-68
2022/02/23 04:00:10;;;;;;;5.62;2.85;;;;;;;;;;1689744;84;20993;-68
2022/02/23 04:02:36;;;;;;;5.28;2.60;;;;;;;;;;1741052;81;20977;-68
2022/02/23 04:05:02;;;;;;;6.37;2.83;;;;;;;;;;1703697;83;21116;-67
2022/02/23 04:07:28;;;;;;;5.42;3.12;;;;;;;;;;1721510;83;21063;-68
2022/02/23 04:09:55;;;;;;;3.22;2.22;;;;;;;;;;1683185;84;21009;-68
2022/02/23 04:12:21;;;;;;;5.12;2.33;;;;;;;;;;1697924;83;21089;-67
2022/02/23 04:14:49;;;;;;;3.55;2.20;;;;;;;;;;1693214;83;21562;-67
2022/02/23 04:17:15;;;;;;;6.22;2.50;;;;;;;;;;1701654;84;21022;-67
2022/02/23 04:19:42;;;;;;;4.05;2.20;;;;;;;;;;1688742;84;21048;-67
2022/02/23 04:22:07;;;;;;;3.58;2.12;;;;;;;;;;1711132;83;21561;-67
2022/02/23 04:24:34;;;;;;;3.12;2.10;;;;;;;;;;1695238;85;21088;-68
2022/02/23 04:27:00;;;;;;;2.75;2.02;;;;;;;;;;1712815;83;21038;-68
2022/02/23 04:29:27;;;;;;;3.00;1.70;;;;;;;;;;1721203;83;21224;-68
2022/02/23 04:31:53;;;;;;;3.75;2.33;;;;;;;;;;1682477;83;20966;-67
2022/02/23 04:34:19;;;;;;;3.60;2.20;;;;;;;;;;1725661;83;21076;-67
2022/02/23 04:36:46;;;;;;;5.20;2.42;;;;;;;;;;1671826;84;21054;-67
2022/02/23 04:39:12;;;;;;;4.12;2.30;;;;;;;;;;1694451;83;21225;-67
2022/02/23 04:41:39;;;;;;;3.25;2.10;;;;;;;;;;1717885;83;21523;-68
2022/02/23 04:44:06;;;;;;;3.30;2.17;;;;;;;;;;1686213;83;21025;-68
2022/02/23 04:46:33;;;;;;;5.30;2.70;;;;;;;;;;1699122;83;21097;-68
2022/02/23 04:48:59;;;;;;;5.90;3.02;;;;;;;;;;1724422;83;20925;-68
2022/02/23 04:51:25;;;;;;;4.80;2.90;;;;;;;;;;1724667;83;21028;-68
2022/02/23 04:53:55;;;;;;;6.45;3.17;;;;;;;;;;1694305;83;20981;-68
2022/02/23 04:56:21;;;;;;;6.75;3.50;;;;;;;;;;1725283;83;21103;-68
2022/02/23 04:58:46;;;;;;;8.28;3.80;;;;;;;;;;1722079;83;21035;-67
2022/02/23 05:01:12;;;;;;;7.78;3.10;;;;;;;;;;1683954;85;21021;-68
2022/02/23 05:03:38;;;;;;;7.62;3.22;;;;;;;;;;1685067;84;21144;-67
2022/02/23 05:06:05;;;;;;;8.73;3.25;;;;;;;;;;1703185;82;21089;-68
2022/02/23 05:08:31;;;;;;;7.22;3.40;;;;;;;;;;1712199;83;20993;-67
2022/02/23 05:10:58;;;;;;;6.10;3.33;;;;;;;;;;1697031;84;21132;-67
2022/02/23 05:13:29;;;;;;;6.33;3.52;;;;;;;;;;1697456;84;21112;-67
2022/02/23 05:15:57;;;;;;;8.85;3.25;;;;;;;;;;1699092;84;21633;-69
2022/02/23 05:18:24;;;;;;;4.33;2.67;;;;;;;;;;1692756;84;21023;-69
2022/02/23 05:20:50;;;;;;;9.10;3.25;;;;;;;;;;1711250;82;20988;-69
2022/02/23 05:23:17;;;;;;;9.80;3.95;;;;;;;;;;1752211;81;21614;-69
2022/02/23 05:25:43;;;;;;;9.80;3.60;;;;;;;;;;1758212;81;21540;-69
2022/02/23 05:28:09;;;;;;;6.37;2.95;;;;;;;;;;1746471;80;21444;-70
2022/02/23 05:30:36;;;;;;;7.15;2.65;;;;;;;;;;1711872;83;21001;-69
2022/02/23 05:33:02;;;;;;;4.53;2.50;;;;;;;;;;1701548;83;21064;-69
2022/02/23 05:35:28;;;;;;;5.95;2.62;;;;;;;;;;1708701;83;21017;-69
2022/02/23 05:37:54;;;;;;;5.25;2.65;;;;;;;;;;1712382;83;20991;-69
2022/02/23 05:40:20;;;;;;;4.15;2.22;;;;;;;;;;1710422;82;21718;-69
2022/02/23 05:42:47;;;;;;;3.90;2.55;;;;;;;;;;1724286;82;20977;-69
2022/02/23 05:45:13;;;;;;;4.37;2.02;;;;;;;;;;1716630;83;21500;-69
2022/02/23 05:47:39;;;;;;;5.53;2.70;;;;;;;;;;1701327;83;21027;-69
2022/02/23 05:50:06;;;;;;;4.10;2.30;;;;;;;;;;1709179;83;21036;-70
2022/02/23 05:52:32;;;;;;;6.55;2.95;;;;;;;;;;1721765;83;21013;-70
2022/02/23 05:54:58;;;;;;;5.40;3.02;;;;;;;;;;1705978;83;21052;-69
2022/02/23 05:57:24;;;;;;;16.80;4.53;;;;;;;;;;1721042;83;21024;-70
2022/02/23 05:59:51;;;;;;;14.15;4.75;;;;;;;;;;1754612;81;21462;-70
2022/02/23 06:02:17;;;;;;;9.00;3.95;;;;;;;;;;1748090;80;22205;-70
2022/02/23 06:04:43;;;;;;;10.18;3.08;;;;;;;;;;1759671;81;20990;-70
2022/02/23 06:07:09;;;;;;;7.80;3.00;;;;;;;;;;1762169;81;21563;-69
2022/02/23 06:09:36;;;;;;;6.62;2.67;;;;;;;;;;1761433;81;21187;-69
2022/02/23 06:12:02;;;;;;;9.68;3.17;;;;;;;;;;1761965;81;21551;-69
2022/02/23 06:14:31;;;;;;;5.05;2.77;;;;;;;;;;1754961;81;21036;-69
2022/02/23 06:16:57;;;;;;;9.05;3.90;;;;;;;;;;1765075;80;20976;-69
2022/02/23 06:19:23;;;;;;;16.73;4.95;;;;;;;;;;1714656;83;20989;-69
2022/02/23 06:21:49;;;;;;;19.35;5.65;;;;;;;;;;1689393;83;21128;-69
2022/02/23 06:24:15;;;;;;;6.03;2.83;;;;;;;;;;1722816;82;21022;-69
2022/02/23 06:26:42;;;;;;;11.08;3.17;;;;;;;;;;1726683;82;21083;-69
2022/02/23 06:29:07;;;;;;;6.12;2.75;;;;;;;;;;1708788;83;21017;-69
2022/02/23 06:31:34;;;;;;;7.42;4.33;;;;;;;;;;1750245;81;21570;-69
2022/02/23 06:33:59;;;;;;;7.80;3.98;;;;;;;;;;1715043;83;21055;-69
2022/02/23 06:36:26;;;;;;;4.28;2.80;;;;;;;;;;1688003;84;21005;-69
2022/02/23 06:38:54;;;;;;;5.58;3.15;;;;;;;;;;1754241;81;21058;-69
2022/02/23 06:41:22;;;;;;;6.83;2.90;;;;;;;;;;1727039;83;21118;-69
2022/02/23 06:43:49;;;;;;;7.47;3.95;;;;;;;;;;1692582;82;21545;-69
2022/02/23 06:46:15;;;;;;;4.95;3.05;;;;;;;;;;1715492;82;20979;-69
2022/02/23 06:48:41;;;;;;;5.28;3.00;;;;;;;;;;1758086;81;20973;-70
2022/02/23 06:51:07;;;;;;;5.00;3.00;;;;;;;;;;1754870;81;21024;-69
2022/02/23 06:53:34;;;;;;;6.58;3.67;;;;;;;;;;1757457;81;21101;-69
2022/02/23 06:56:00;;;;;;;6.35;3.17;;;;;;;;;;1756381;81;21581;-69
2022/02/23 06:58:27;;;;;;;10.15;3.70;;;;;;;;;;1751583;81;21055;-69
2022/02/23 07:00:53;;;;;;;6.92;3.62;;;;;;;;;;1755722;81;21490;-68
2022/02/23 07:03:19;;;;;;;8.95;3.20;;;;;;;;;;1764023;80;21045;-69
2022/02/23 07:05:45;;;;;;;7.22;3.65;;;;;;;;;;1762349;81;21482;-69
2022/02/23 07:08:11;;;;;;;6.10;3.10;;;;;;;;;;1748025;81;20984;-70
2022/02/23 07:10:37;;;;;;;5.42;3.55;;;;;;;;;;1725785;83;21014;-70
2022/02/23 07:13:09;;;;;;;5.33;2.98;;;;;;;;;;1684793;84;21037;-70
2022/02/23 07:15:35;;;;;;;6.78;3.37;;;;;;;;;;1690028;84;21076;-71
2022/02/23 07:18:01;;;;;;;5.85;2.90;;;;;;;;;;1718754;83;20987;-70
2022/02/23 07:20:27;;;;;;;3.87;2.47;;;;;;;;;;1712713;83;21048;-70
2022/02/23 07:22:53;;;;;;;5.47;3.15;;;;;;;;;;1711008;83;21036;-68
2022/02/23 07:25:20;;;;;;;6.67;3.33;;;;;;;;;;1698152;84;21566;-68
2022/02/23 07:27:46;;;;;;;6.67;3.50;;;;;;;;;;1685371;84;21000;-69
2022/02/23 07:30:13;;;;;;;4.33;2.50;;;;;;;;;;1687751;83;21057;-70
2022/02/23 07:32:39;;;;;;;4.33;2.72;;;;;;;;;;1677873;84;21046;-68
2022/02/23 07:35:05;;;;;;;3.50;2.33;;;;;;;;;;1714562;82;21031;-68
2022/02/23 07:37:33;;;;;;;5.03;2.60;;;;;;;;;;1719443;81;20980;-68
2022/02/23 07:40:03;;;;;;;5.10;2.95;;;;;;;;;;1710656;82;21638;-69
2022/02/23 07:42:30;;;;;;;3.80;2.30;;;;;;;;;;1741786;81;21032;-68
2022/02/23 07:44:56;;;;;;;5.20;2.45;;;;;;;;;;1752971;81;21005;-69
2022/02/23 07:47:22;;;;;;;2.95;2.20;;;;;;;;;;1750247;81;21100;-68
2022/02/23 07:49:49;;;;;;;6.25;3.60;;;;;;;;;;1724116;83;20975;-69
2022/02/23 07:52:17;;;;;;;3.85;2.17;;;;;;;;;;1694503;83;21581;-70
2022/02/23 07:54:43;;;;;;;4.25;2.62;;;;;;;;;;1677141;83;21026;-70
2022/02/23 07:57:10;;;;;;;4.10;2.67;;;;;;;;;;1681169;84;21040;-70
2022/02/23 07:59:36;;;;;;;4.53;2.80;;;;;;;;;;1746766;81;21015;-70
2022/02/23 08:02:03;;;;;;;4.92;2.50;;;;;;;;;;1730743;81;21133;-70
2022/02/23 08:04:32;;;;;;;4.45;2.90;;;;;;;;;;1747104;81;21060;-68
2022/02/23 08:06:58;;;;;;;3.08;2.02;;;;;;;;;;1720805;82;21560;-67
2022/02/23 08:09:24;;;;;;;6.72;3.15;;;;;;;;;;1729528;82;21020;-67
2022/02/23 08:11:51;;;;;;;4.15;2.60;;;;;;;;;;1737991;82;21012;-67
2022/02/23 08:14:17;;;;;;;4.15;2.40;;;;;;;;;;1720001;82;21520;-67
2022/02/23 08:22:03;;;;;;;5.08;2.45;;;;;;;;;;1735902;82;21498;-67
2022/02/23 08:24:30;;;;;;;4.00;2.60;;;;;;;;;;1733875;82;21045;-69
2022/02/23 08:26:57;;;;;;;4.15;2.75;;;;;;;;;;1723392;82;21043;-68
2022/02/23 08:29:23;;;;;;;2.80;2.17;;;;;;;;;;1721983;82;21531;-70
2022/02/23 08:31:49;;;;;;;5.03;2.60;;;;;;;;;;1717524;82;21496;-69
2022/02/23 08:34:16;;;;;;;6.08;2.58;;;;;;;;;;1668384;84;20997;-68
2022/02/23 08:36:41;;;;;;;5.67;2.50;;;;;;;;;;1659201;85;20993;-69
2022/02/23 08:39:07;;;;;;;3.95;2.00;;;;;;;;;;1738407;82;21052;-69
2022/02/23 08:41:34;;;;;;;3.90;2.47;;;;;;;;;;1738739;82;21000;-70
2022/02/23 08:44:06;;;;;;;3.80;2.15;;;;;;;;;;1710860;82;21078;-70
2022/02/23 08:46:31;;;;;;;4.65;2.30;;;;;;;;;;1660677;86;21013;-69
2022/02/23 08:48:57;;;;;;;4.25;2.47;;;;;;;;;;1664232;85;21103;-69
2022/02/23 08:51:23;;;;;;;4.40;2.50;;;;;;;;;;1734712;82;21108;-69
2022/02/23 08:53:49;;;;;;;3.47;1.90;;;;;;;;;;1727898;82;21001;-68
2022/02/23 08:56:15;;;;;;;5.40;2.55;;;;;;;;;;1665255;85;21050;-69
2022/02/23 08:58:41;;;;;;;3.60;2.60;;;;;;;;;;1658432;85;21103;-69
2022/02/23 09:01:07;;;;;;;3.08;2.30;;;;;;;;;;1663628;84;21064;-69
2022/02/23 09:03:34;;;;;;;3.60;2.45;;;;;;;;;;1727270;82;21575;-67
2022/02/23 09:06:00;;;;;;;3.67;2.12;;;;;;;;;;1744730;81;21111;-68
2022/02/23 09:08:26;;;;;;;4.10;2.33;;;;;;;;;;1734542;81;21351;-67
2022/02/23 09:10:53;;;;;;;3.45;2.20;;;;;;;;;;1753893;81;21476;-67
2022/02/23 09:13:19;;;;;;;4.50;2.02;;;;;;;;;;1763106;81;21044;-69
2022/02/23 09:15:46;;;;;;;3.92;2.60;;;;;;;;;;1720712;83;21013;-69
2022/02/23 09:18:13;;;;;;;3.90;2.50;;;;;;;;;;1686739;84;21001;-67
2022/02/23 09:20:39;;;;;;;4.22;2.08;;;;;;;;;;1759467;81;21016;-68
2022/02/23 09:23:05;;;;;;;3.83;2.70;;;;;;;;;;1741624;81;21002;-68
2022/02/23 09:25:32;;;;;;;3.92;2.50;;;;;;;;;;1737466;81;20989;-68
2022/02/23 09:27:57;;;;;;;5.40;2.90;;;;;;;;;;1757242;81;21025;-67
2022/02/23 09:30:23;;;;;;;3.95;2.20;;;;;;;;;;1756208;81;21048;-69
2022/02/23 09:32:49;;;;;;;4.72;2.80;;;;;;;;;;1761602;81;21436;-68
2022/02/23 09:35:16;;;;;;;3.20;2.08;;;;;;;;;;1714407;83;21040;-69
2022/02/23 09:37:42;;;;;;;4.35;2.30;;;;;;;;;;1692653;83;21064;-68
2022/02/23 09:40:14;;;;;;;3.00;2.17;;;;;;;;;;1693949;83;21516;-68
2022/02/23 09:42:40;;;;;;;5.87;3.67;;;;;;;;;;1717354;83;21007;-68
2022/02/23 09:45:07;;;;;;;4.15;2.80;;;;;;;;;;1685730;84;21026;-68
2022/02/23 09:47:33;;;;;;;4.33;2.60;;;;;;;;;;1761346;81;20969;-68
2022/02/23 09:50:00;;;;;;;3.30;2.22;;;;;;;;;;1760796;81;21657;-68
2022/02/23 09:52:26;;;;;;;4.10;2.45;;;;;;;;;;1757098;81;21056;-68
2022/02/23 09:54:53;;;;;;;4.83;2.80;;;;;;;;;;1748825;81;21059;-70
2022/02/23 09:57:20;;;;;;;4.35;2.90;;;;;;;;;;1762795;81;21008;-68
2022/02/23 09:59:46;;;;;;;3.58;1.98;;;;;;;;;;1759237;81;21044;-68
2022/02/23 10:02:12;;;;;;;3.75;2.30;;;;;;;;;;1744809;80;21048;-68
2022/02/23 10:04:40;;;;;;;3.90;2.75;;;;;;;;;;1723429;83;21003;-68
2022/02/23 10:07:06;;;;;;;3.55;2.30;;;;;;;;;;1684249;83;21101;-67
2022/02/23 10:09:43;;;;;;;5.05;2.65;;;;;;;;;;1699310;84;21603;-67
2022/02/23 10:12:16;;;;;;;5.37;2.62;;;;;;;;;;1728416;82;21043;-68
2022/02/23 10:14:43;;;;;;;4.40;2.83;;;;;;;;;;1712748;83;21084;-67
2022/02/23 10:17:09;;;;;;;4.78;2.80;;;;;;;;;;1713403;83;21008;-67
2022/02/23 10:19:36;;;;;;;4.55;2.80;;;;;;;;;;1698312;83;21037;-67
2022/02/23 10:22:02;;;;;;;3.90;2.40;;;;;;;;;;1691120;83;21636;-68
2022/02/23 10:24:30;;;;;;;5.30;2.35;;;;;;;;;;1682122;83;21053;-68
2022/02/23 10:26:56;;;;;;;2.80;1.90;;;;;;;;;;1661530;84;20982;-67
2022/02/23 10:29:27;;;;;;;3.40;2.27;;;;;;;;;;1755890;81;21012;-68
2022/02/23 10:31:53;;;;;;;4.65;2.30;;;;;;;;;;1744078;81;21503;-68
2022/02/23 10:34:25;;;;;;;2.80;2.10;;;;;;;;;;1748811;81;21011;-68
2022/02/23 10:37:04;;;;;;;3.42;2.30;;;;;;;;;;1721353;83;21095;-68
2022/02/23 10:39:34;;;;;;;3.15;2.00;;;;;;;;;;1751133;81;21103;-67
2022/02/23 10:42:04;;;;;;;4.00;2.25;;;;;;;;;;1740374;81;21105;-68
2022/02/23 10:44:32;;;;;;;2.87;1.80;;;;;;;;;;1716526;81;21100;-68
2022/02/23 10:47:01;;;;;;;3.08;2.15;;;;;;;;;;1722305;81;21048;-67
2022/02/23 10:49:28;;;;;;;4.72;2.67;;;;;;;;;;1743432;81;21054;-67
2022/02/23 10:51:56;;;;;;;4.70;2.33;;;;;;;;;;1745244;81;21038;-67
2022/02/23 10:54:22;;;;;;;3.22;2.20;;;;;;;;;;1674663;83;21541;-66
2022/02/23 10:57:56;;;;;;;2.35;2.08;;;;;;;;;;1804501;78;23284;-67
2022/02/23 11:00:29;;;;;;;2.60;1.95;;;;;;;;;;1768798;80;22057;-67
2022/02/23 11:02:55;;;;;;;3.72;2.10;;;;;;;;;;1758429;80;21115;-67
2022/02/23 11:05:24;;;;;;;3.35;2.30;;;;;;;;;;1756526;82;21523;-68
2022/02/23 11:07:54;;;;;;;2.35;1.55;;;;;;;;;;1753183;81;21039;-68
2022/02/23 11:10:21;;;;;;;4.47;2.00;;;;;;;;;;1751109;82;21059;-69
2022/02/23 11:12:50;;;;;;;4.85;2.37;;;;;;;;;;1756090;82;21051;-69
2022/02/23 11:15:19;;;;;;;2.40;1.90;;;;;;;;;;1750221;82;21027;-69
2022/02/23 11:17:46;;;;;;;3.22;2.17;;;;;;;;;;1750308;82;21028;-69
2022/02/23 11:20:21;;;;;;;4.40;2.27;;;;;;;;;;1756864;82;21526;-68
2022/02/23 11:22:53;;;;;;;2.87;2.40;;;;;;;;;;1756274;82;21005;-68
2022/02/23 11:25:21;;;;;;;15.70;6.05;;;;;;;;;;1756703;82;21043;-70
2022/02/23 11:27:48;;;;;;;6.67;3.72;;;;;;;;;;1754901;81;21022;-70
2022/02/23 11:30:14;;;;;;;5.55;2.72;;;;;;;;;;1755423;80;21011;-69
2022/02/23 11:32:41;;;;;;;4.10;2.52;;;;;;;;;;1749447;82;21035;-67
2022/02/23 11:35:07;;;;;;;8.28;2.50;;;;;;;;;;1756025;82;21015;-68
2022/02/23 11:37:34;;;;;;;15.15;3.12;;;;;;;;;;1755932;82;21063;-68
2022/02/23 11:40:00;;;;;;;4.87;2.37;;;;;;;;;;1752790;82;21040;-67
2022/02/23 11:42:26;;;;;;;6.47;3.02;;;;;;;;;;1757567;81;20995;-68
2022/02/23 11:45:06;;;;;;;4.83;2.42;;;;;;;;;;1754932;81;20984;-69
2022/02/23 11:50:37;;;;;;;4.22;2.10;;;;;;;;;;1755155;81;21012;-65
2022/02/23 11:53:22;;;;;;;5.45;2.30;;;;;;;;;;1747064;82;20984;-65
2022/02/23 12:02:39;;;;;;;3.85;2.27;;;;;;;;;;1745650;81;22081;-64
2022/02/23 12:05:06;;;;;;;3.83;2.10;;;;;;;;;;1750893;81;21071;-64
2022/02/23 12:07:46;;;;;;;4.50;2.47;;;;;;;;;;1751517;82;21071;-64
2022/02/23 12:10:14;;;;;;;5.45;2.27;;;;;;;;;;1747857;82;21087;-64
2022/02/23 12:12:42;;;;;;;3.95;2.10;;;;;;;;;;1751021;82;21087;-64
2022/02/23 12:15:13;;;;;;;4.72;2.52;;;;;;;;;;1752148;81;21036;-66
2022/02/23 12:17:46;;;;;;;2.17;1.82;;;;;;;;;;1746245;81;20985;-64
2022/02/23 12:20:31;;;;;;;3.60;2.30;;;;;;;;;;1746844;82;21020;-64
2022/02/23 12:23:06;;;;;;;3.95;2.22;;;;;;;;;;1748663;82;21028;-64
2022/02/23 12:25:40;;;;;;;3.98;2.12;;;;;;;;;;1746002;82;21044;-65
2022/02/23 12:28:06;;;;;;;3.85;1.82;;;;;;;;;;1734987;82;21075;-64
2022/02/23 12:30:35;;;;;;;4.95;2.60;;;;;;;;;;1751068;82;21056;-65
2022/02/23 12:33:01;;;;;;;4.55;2.50;;;;;;;;;;1751098;80;21004;-65
2022/02/23 12:35:27;;;;;;;5.35;2.80;;;;;;;;;;1750585;82;21004;-65
2022/02/23 12:37:55;;;;;;;6.05;3.02;;;;;;;;;;1750921;82;21096;-65
2022/02/23 12:40:20;;;;;;;5.47;2.40;;;;;;;;;;1750480;82;21064;-65
2022/02/23 12:42:47;;;;;;;3.75;2.50;;;;;;;;;;1750650;82;21016;-64
2022/02/23 12:45:13;;;;;;;3.45;2.00;;;;;;;;;;1749842;82;21511;-64
2022/02/23 12:47:41;;;;;;;6.08;2.45;;;;;;;;;;1751184;82;21020;-64
2022/02/23 12:50:08;;;;;;;3.62;2.12;;;;;;;;;;1749088;80;21520;-65
2022/02/23 12:52:35;;;;;;;3.42;2.20;;;;;;;;;;1751124;82;21040;-65
2022/02/23 12:55:02;;;;;;;5.67;2.80;;;;;;;;;;1751009;82;21032;-65
2022/02/23 12:57:29;;;;;;;4.28;2.45;;;;;;;;;;1746410;82;21128;-64
2022/02/23 12:59:58;;;;;;;6.03;2.85;;;;;;;;;;1742076;82;21016;-65
2022/02/23 13:02:24;;;;;;;5.58;3.10;;;;;;;;;;1741997;81;21611;-66
2022/02/23 13:04:51;;;;;;;4.33;2.67;;;;;;;;;;1723869;82;21009;-65
2022/02/23 13:07:17;;;;;;;3.42;2.40;;;;;;;;;;1742028;81;21059;-65
2022/02/23 13:09:44;;;;;;;4.53;2.92;;;;;;;;;;1743921;82;20985;-64
2022/02/23 13:12:10;;;;;;;4.92;2.95;;;;;;;;;;1743414;82;21040;-64
2022/02/23 13:14:37;;;;;;;4.22;2.77;;;;;;;;;;1743834;82;20999;-64
2022/02/23 13:17:04;;;;;;;5.45;2.87;;;;;;;;;;1742658;82;21040;-65
2022/02/23 13:19:31;;;;;;;4.65;2.67;;;;;;;;;;1743166;82;21000;-65
2022/02/23 13:21:59;;;;;;;5.03;2.60;;;;;;;;;;1741722;81;21024;-65
2022/02/23 13:24:30;;;;;;;4.55;2.87;;;;;;;;;;1742154;82;21067;-64
2022/02/23 13:26:56;;;;;;;5.15;2.75;;;;;;;;;;1745148;81;21012;-64
2022/02/23 13:29:22;;;;;;;4.25;2.75;;;;;;;;;;1736146;82;21087;-65
2022/02/23 13:31:50;;;;;;;4.45;2.47;;;;;;;;;;1742092;82;21012;-65
2022/02/23 13:34:20;;;;;;;4.72;3.20;;;;;;;;;;1743234;82;20949;-63
2022/02/23 13:36:48;;;;;;;5.28;2.80;;;;;;;;;;1745397;81;21031;-65
2022/02/23 13:39:22;;;;;;;5.10;2.98;;;;;;;;;;1745446;81;20975;-65
2022/02/23 13:41:50;;;;;;;8.18;3.20;;;;;;;;;;1742857;82;21036;-66
2022/02/23 13:44:16;;;;;;;6.33;2.95;;;;;;;;;;1743483;81;21055;-65
2022/02/23 13:46:44;;;;;;;5.75;2.80;;;;;;;;;;1745026;81;21146;-66
2022/02/23 13:49:09;;;;;;;5.03;3.35;;;;;;;;;;1750767;81;21031;-65
2022/02/23 13:51:37;;;;;;;3.90;2.52;;;;;;;;;;1748117;81;20996;-65
2022/02/23 13:54:05;;;;;;;5.80;2.70;;;;;;;;;;1742125;82;20997;-64
2022/02/23 13:56:31;;;;;;;3.92;2.27;;;;;;;;;;1736988;81;21492;-64
2022/02/23 13:59:00;;;;;;;5.15;2.75;;;;;;;;;;1744173;81;20982;-63
2022/02/23 14:01:28;;;;;;;4.60;2.85;;;;;;;;;;1745008;81;21682;-65
2022/02/23 14:03:55;;;;;;;4.30;2.40;;;;;;;;;;1745947;81;21060;-65
2022/02/23 14:06:21;;;;;;;5.12;2.62;;;;;;;;;;1747402;81;21492;-65
2022/02/23 14:08:50;;;;;;;4.22;2.80;;;;;;;;;;1744303;81;20981;-64
2022/02/23 14:11:17;;;;;;;5.62;2.45;;;;;;;;;;1750377;81;21301;-66
2022/02/23 14:13:54;;;;;;;5.35;2.60;;;;;;;;;;1744330;81;21067;-64
2022/02/23 14:16:19;;;;;;;4.25;2.70;;;;;;;;;;1745561;81;21504;-65
2022/02/23 14:18:48;;;;;;;4.62;3.10;;;;;;;;;;1744706;81;21083;-65
2022/02/23 14:21:14;;;;;;;4.78;3.17;;;;;;;;;;1741466;82;21001;-65
2022/02/23 14:23:41;;;;;;;6.17;3.10;;;;;;;;;;1742374;82;21044;-64
2022/02/23 14:26:08;;;;;;;5.00;3.00;;;;;;;;;;1744607;81;21063;-65
2022/02/23 14:28:41;;;;;;;5.30;3.00;;;;;;;;;;1745385;81;21076;-63
2022/02/23 14:31:22;;;;;;;6.97;3.45;;;;;;;;;;1734921;81;21542;-64
2022/02/23 14:33:49;;;;;;;8.93;4.58;;;;;;;;;;1744765;81;20989;-64
2022/02/23 14:36:15;;;;;;;10.05;4.50;;;;;;;;;;1739458;81;21065;-64
2022/02/23 14:38:41;;;;;;;7.35;3.60;;;;;;;;;;1743274;81;21076;-63
2022/02/23 14:41:07;;;;;;;9.28;4.60;;;;;;;;;;1742991;81;20941;-64
2022/02/23 14:43:34;;;;;;;7.08;3.80;;;;;;;;;;1744073;81;21508;-63
2022/02/23 14:46:00;;;;;;;15.53;7.33;;;;;;;;;;1743184;82;21761;-63
2022/02/23 14:48:26;;;;;;;14.23;5.62;;;;;;;;;;1743431;81;20987;-63
2022/02/23 14:50:52;;;;;;;13.88;6.00;;;;;;;;;;1739583;81;21098;-63
2022/02/23 14:53:21;;;;;;;16.00;6.42;;;;;;;;;;1742495;81;21068;-63
2022/02/23 14:55:47;;;;;;;8.03;4.15;;;;;;;;;;1741098;81;21084;-62
2022/02/23 14:58:13;;;;;;;9.58;4.12;;;;;;;;;;1751599;81;21574;-63
2022/02/23 15:00:39;;;;;;;13.80;6.22;;;;;;;;;;1748992;81;21068;-64
2022/02/23 15:03:05;;;;;;;16.95;8.05;;;;;;;;;;1744822;81;21019;-64